This is the latest recevied weather packets stored in our database for station/object IW1CBG-3. If no packets are shown the sender has not sent any weather packets the latest 10 day(s).
| Time | Temp. | Humidity | Pressure | Rain* | Wind** | Luminosity | Snow |
|---|---|---|---|---|---|---|---|
| 1788638178 | 20° C | 92% | 1029.8 hPa | 0 mm | - | - | - |
| 1788637578 | 20° C | 92% | 1029.8 hPa | 0 mm | - | - | - |
| 1788636987 | 20° C | 92% | 1029.4 hPa | 0 mm | - | - | - |
| 1788636378 | 20.56° C | 92% | 1029.2 hPa | 0 mm | - | - | - |
| 1788635778 | 20.56° C | 91% | 1029.3 hPa | 0 mm | - | - | - |
| 1788635178 | 20.56° C | 90% | 1029.3 hPa | 0 mm | - | - | - |
| 1788634578 | 21.11° C | 89% | 1029 hPa | 0 mm | - | - | - |
| 1788633978 | 21.11° C | 90% | 1028.6 hPa | 0 mm | - | - | - |
| 1788633378 | 21.67° C | 89% | 1028.6 hPa | 0 mm | - | - | - |
| 1788632777 | 21.67° C | 88% | 1028.3 hPa | 0 mm | - | - | - |
| 1788632178 | 22.78° C | 87% | 1028.1 hPa | 0 mm | - | - | - |
| 1788631578 | 22.78° C | 84% | 1027.9 hPa | 0 mm | - | - | - |
| 1788630978 | 23.33° C | 77% | 1027.5 hPa | 0 mm | - | - | - |
| 1788630379 | 22.78° C | 84% | 1027.5 hPa | 0 mm | - | - | - |
| 1788629779 | 23.33° C | 83% | 1027.5 hPa | 0 mm | - | - | - |
| 1788629178 | 23.33° C | 85% | 1027.7 hPa | 0 mm | - | - | - |
| 1788628579 | 23.89° C | 84% | 1027.1 hPa | 0 mm | - | - | - |
| 1788627978 | 23.89° C | 83% | 1027 hPa | 0 mm | - | - | - |
| 1788627377 | 25° C | 80% | 1026.8 hPa | 0 mm | - | - | - |
| 1788626777 | 25.56° C | 78% | 1026.6 hPa | 0 mm | - | - | - |
| 1788626178 | 25° C | 79% | 1026.7 hPa | 0 mm | - | - | - |
| 1788625578 | 25° C | 80% | 1026.8 hPa | 0 mm | - | - | - |
| 1788624978 | 25° C | 79% | 1026.6 hPa | 0 mm | - | - | - |
| 1788624379 | 26.11° C | 76% | 1026.5 hPa | 0 mm | - | - | - |
| 1788623777 | 26.11° C | 76% | 1026.5 hPa | 0 mm | - | - | - |
* Rain latest hour (hover to see other rain measurements)
** Current wind speed in m/s (hover to see current wind gust speed)